createdAt,value
2017-04-12T12:18:10.541Z,5848
2017-04-12T12:23:10.433Z,5992
2017-04-12T12:28:10.430Z,5168
2017-04-12T12:33:10.305Z,5844
2017-04-12T12:38:09.904Z,6348
2017-04-12T12:43:09.856Z,5776
2017-04-12T12:48:10.178Z,5928
2017-04-12T12:53:10.058Z,4828
2017-04-12T12:58:10.158Z,3876
2017-04-12T13:03:09.752Z,2652
2017-04-12T13:08:09.842Z,1992
2017-04-12T13:13:09.794Z,2184
2017-04-12T13:18:09.434Z,7592
2017-04-12T13:23:09.670Z,6108
2017-04-12T13:28:09.620Z,4256
2017-04-12T13:33:09.242Z,4068
2017-04-12T13:38:09.504Z,8656
2017-04-12T13:43:09.118Z,8064
2017-04-12T13:48:09.376Z,7668
2017-04-12T13:53:09.320Z,3708
2017-04-12T13:58:08.974Z,2524
2017-04-12T14:03:09.210Z,1784
2017-04-12T14:08:09.184Z,1600
2017-04-12T14:13:08.778Z,2436
2017-04-12T14:18:09.000Z,2020
2017-04-12T14:23:08.957Z,1820
2017-04-12T14:28:08.872Z,1224
2017-04-12T14:33:08.818Z,1332
2017-04-12T14:38:08.759Z,1472
2017-04-12T14:43:08.702Z,1248
2017-04-12T14:48:08.344Z,1076
2017-04-12T14:53:08.606Z,1112
2017-04-12T14:58:08.504Z,1456
2017-04-12T15:03:08.442Z,1264
2017-04-12T15:08:08.378Z,960
2017-04-12T15:13:08.308Z,820
2017-04-12T15:18:08.226Z,756
2017-04-12T15:23:08.258Z,1732
2017-04-12T15:28:08.104Z,1040
2017-04-12T15:33:08.030Z,1232
2017-04-12T15:38:07.966Z,2208
2017-04-12T15:43:07.598Z,1856
2017-04-12T15:48:07.922Z,1200
2017-04-12T15:53:07.803Z,1192
2017-04-12T15:58:07.833Z,1116
2017-04-12T16:03:07.639Z,1032
2017-04-12T16:08:07.561Z,1420
2017-04-12T16:13:07.494Z,1300
2017-04-12T16:18:07.471Z,1400
2017-04-12T16:23:07.355Z,1036
2017-04-12T16:28:07.343Z,1044
2017-04-12T16:33:07.039Z,820
